Cataula, Georgia
Current Conditions -  °F | °C
As of 2:51 PM on Thursday 27 Nov 2014 (Local Time) from KCSG Reporting Station
Clear Clear  
Wind Chill: 51°   Ceiling: Unl
Heat Index: 51°   Visibility: 10mi
Dew Point: 26°   Wind: 14mph
Humidity: 38%   Direction: 350°N
Pressure: 30.3"   Gusts: 21mph
Location:  32.66°N, 84.87°W
Report Text: KCSG 271951Z 35012G18KT 10SM CLR 11/M03 A3030 RMK AO2 SLP259 T01061033
Loading
Personal Weather Stations






























Interactive Weather Map New forecast layout! Learn more

10-Day Weather Forecast

Advertisements
Track Severe Weather on mobile